Collinwood, Tennessee
Current Conditions -  °F | °C
As of 12:55 AM on Thursday 27 Nov 2014 (Local Time) from KSNH Reporting Station
Scattered Clouds Scattered Clouds  
Wind Chill: 28°   Ceiling: Unl
Heat Index: 28°   Visibility: 10mi
Dew Point: 28°   Wind: 3mph
Humidity: 100%   Direction: 240°WSW
Pressure: 30.17"   Gusts: NA
Location:  35.17°N, 87.74°W
Report Text: KSNH 270655Z AUTO 24003KT 10SM SCT055 M02/M02 A3017 RMK
Loading
Personal Weather Stations






























Interactive Weather Map New forecast layout! Learn more

10-Day Weather Forecast

Advertisements
Track Severe Weather on mobile